Time;durP1;ratioP1;P1;durP2;ratioP2;P2;SDS_P1;SDS_P2;PMS_P1;PMS_P2;Temp;Humidity;BMP_temperature;BMP_pressure;BME280_temperature;BME280_humidity;BME280_pressure;Samples;Min_cycle;Max_cycle;Signal;HPM_P1;HPM_P2
2022/07/22 00:00:07;;;;;;;;;;;;;;;22.99;75.78;96894.94;601706;235;68817;-72
2022/07/22 00:02:35;;;;;;;;;;;;;;;22.98;75.74;96901.39;601682;235;65096;-72
2022/07/22 00:05:02;;;;;;;;;;;;;;;22.98;75.88;96901.39;601776;235;69554;-72
2022/07/22 00:07:30;;;;;;;;;;;;;;;22.98;75.81;96901.39;601682;235;68919;-72
2022/07/22 00:09:57;;;;;;;;;;;;;;;22.98;75.81;96904.86;601695;235;64926;-72
2022/07/22 00:12:25;;;;;;;;;;;;;;;22.97;75.87;96900.60;601694;235;68744;-66
2022/07/22 00:14:52;;;;;;;;;;;;;;;22.98;75.79;96912.91;601715;235;68802;-72
2022/07/22 00:17:20;;;;;;;;;;;;;;;22.97;75.76;96905.14;601735;235;64867;-72
2022/07/22 00:19:47;;;;;;;;;;;;;;;22.98;75.72;96906.75;601594;235;68698;-72
2022/07/22 00:22:15;;;;;;;;;;;;;;;22.98;75.85;96910.22;599941;234;71965;-72
2022/07/22 00:24:43;;;;;;;;;;;;;;;22.98;75.70;96912.91;599916;236;66479;-66
2022/07/22 00:27:11;;;;;;;;;;;;;;;22.97;75.69;96911.32;601712;236;68596;-66
2022/07/22 00:29:39;;;;;;;;;;;;;;;22.98;75.63;96920.15;601772;236;66113;-65
2022/07/22 00:32:06;;;;;;;;;;;;;;;22.98;75.77;96923.63;601659;236;65207;-66
2022/07/22 00:34:34;;;;;;;;;;;;;;;22.98;75.71;96918.27;601706;236;69813;-65
2022/07/22 00:37:01;;;;;;;;;;;;;;;22.99;75.76;96919.06;601687;236;68980;-66
2022/07/22 00:39:29;;;;;;;;;;;;;;;22.98;75.82;96922.83;601691;236;65164;-66
2022/07/22 00:41:57;;;;;;;;;;;;;;;22.98;75.90;96922.83;601750;236;69776;-65
2022/07/22 00:44:24;;;;;;;;;;;;;;;22.98;75.78;96922.83;601737;235;68808;-66
2022/07/22 00:46:52;;;;;;;;;;;;;;;22.98;75.99;96923.63;601713;235;66074;-66
2022/07/22 00:49:20;;;;;;;;;;;;;;;22.97;75.76;96914.00;601753;235;66475;-66
2022/07/22 00:51:48;;;;;;;;;;;;;;;22.98;75.80;96914.80;601701;235;69581;-65
2022/07/22 00:54:15;;;;;;;;;;;;;;;22.97;75.49;96922.04;601705;235;62590;-65
2022/07/22 00:56:43;;;;;;;;;;;;;;;22.98;75.87;96914.80;602135;235;69224;-66
2022/07/22 00:59:12;;;;;;;;;;;;;;;22.99;75.93;96921.73;602239;235;66667;-66
2022/07/22 01:01:39;;;;;;;;;;;;;;;22.98;75.68;96917.47;602267;235;65207;-65
2022/07/22 01:04:07;;;;;;;;;;;;;;;22.97;75.70;96913.17;602265;235;69064;-66
2022/07/22 01:06:34;;;;;;;;;;;;;;;22.97;75.87;96922.04;602260;235;68878;-66
2022/07/22 01:09:02;;;;;;;;;;;;;;;22.98;75.72;96912.91;602327;235;65043;-66
2022/07/22 01:11:30;;;;;;;;;;;;;;;22.97;75.82;96914.00;602280;235;68783;-66
2022/07/22 01:13:58;;;;;;;;;;;;;;;22.98;75.86;96912.11;602263;235;68880;-67
2022/07/22 01:16:26;;;;;;;;;;;;;;;22.97;75.97;96905.14;602302;235;62939;-67
2022/07/22 01:18:54;;;;;;;;;;;;;;;22.97;75.81;96911.32;602312;235;68615;-66
2022/07/22 01:21:22;;;;;;;;;;;;;;;22.97;75.80;96911.32;602340;235;66156;-67
2022/07/22 01:23:49;;;;;;;;;;;;;;;22.98;75.92;96912.11;602319;235;65083;-66
2022/07/22 01:26:18;;;;;;;;;;;;;;;22.98;76.21;96912.11;602260;235;68975;-67
2022/07/22 01:28:45;;;;;;;;;;;;;;;22.98;76.14;96914.80;602278;235;66034;-66
2022/07/22 01:31:13;;;;;;;;;;;;;;;22.98;75.81;96914.80;602308;235;63828;-66
2022/07/22 01:33:42;;;;;;;;;;;;;;;22.98;75.89;96914.80;602339;235;68974;-70
2022/07/22 01:36:10;;;;;;;;;;;;;;;22.98;75.78;96920.15;602279;235;66335;-70
2022/07/22 01:38:37;;;;;;;;;;;;;;;22.98;75.75;96914.80;602293;235;65237;-70
2022/07/22 01:41:05;;;;;;;;;;;;;;;22.97;75.64;96916.68;602238;235;68453;-70
2022/07/22 01:43:33;;;;;;;;;;;;;;;22.97;75.62;96922.04;602294;235;66026;-71
2022/07/22 01:46:01;;;;;;;;;;;;;;;22.99;75.95;96916.38;602262;235;65152;-70
2022/07/22 01:48:29;;;;;;;;;;;;;;;22.97;76.08;96916.68;602326;235;68697;-70
2022/07/22 01:50:57;;;;;;;;;;;;;;;22.98;75.88;96914.80;602229;235;66594;-70
2022/07/22 01:53:24;;;;;;;;;;;;;;;22.97;75.91;96919.36;602257;235;65299;-70
2022/07/22 01:55:52;;;;;;;;;;;;;;;22.98;75.85;96912.11;602033;235;68781;-70
2022/07/22 01:58:20;;;;;;;;;;;;;;;22.98;75.77;96912.11;601699;235;66131;-70
2022/07/22 02:00:48;;;;;;;;;;;;;;;22.99;75.79;96916.38;601745;235;62774;-71
2022/07/22 02:03:15;;;;;;;;;;;;;;;22.98;75.85;96917.47;601729;235;68979;-70
2022/07/22 02:05:43;;;;;;;;;;;;;;;22.98;75.69;96914.80;601710;235;66704;-71
2022/07/22 02:08:13;;;;;;;;;;;;;;;22.98;75.66;96918.27;601546;234;46162;-70
2022/07/22 02:10:59;;;;;;;;;;;;;;;22.98;75.77;96918.27;601820;235;41894;-72
2022/07/22 02:13:27;;;;;;;;;;;;;;;22.98;75.55;96917.47;601689;235;66131;-71
2022/07/22 02:15:54;;;;;;;;;;;;;;;22.98;75.81;96922.83;601745;235;63036;-71
2022/07/22 02:18:22;;;;;;;;;;;;;;;22.97;75.79;96915.86;601701;235;66746;-71
2022/07/22 02:20:50;;;;;;;;;;;;;;;22.98;75.43;96917.47;601714;235;68581;-71
2022/07/22 02:23:19;;;;;;;;;;;;;;;22.98;75.67;96918.27;601713;235;62527;-71
2022/07/22 02:25:48;;;;;;;;;;;;;;;22.98;75.72;96933.55;601731;235;66816;-71
2022/07/22 02:28:17;;;;;;;;;;;;;;;22.99;75.78;96932.45;601812;234;51861;-71
2022/07/22 02:30:45;;;;;;;;;;;;;;;22.98;75.78;96928.19;601730;235;63878;-71
2022/07/22 02:33:14;;;;;;;;;;;;;;;22.97;75.84;96931.94;601693;235;69429;-71
2022/07/22 02:35:41;;;;;;;;;;;;;;;22.98;75.87;96945.06;601702;235;66695;-72
2022/07/22 02:38:09;;;;;;;;;;;;;;;22.97;75.74;96946.16;601722;235;65211;-71
2022/07/22 02:40:37;;;;;;;;;;;;;;;22.97;75.88;96938.12;601735;235;69509;-71
2022/07/22 02:43:06;;;;;;;;;;;;;;;22.98;76.03;96945.06;601713;235;68784;-71
2022/07/22 02:45:34;;;;;;;;;;;;;;;22.97;75.88;96943.48;601701;235;64933;-71
2022/07/22 02:48:02;;;;;;;;;;;;;;;22.98;76.12;96939.70;601717;235;66298;-65
2022/07/22 02:50:32;;;;;;;;;;;;;;;22.98;75.73;96936.23;601703;235;68748;-65
2022/07/22 02:53:00;;;;;;;;;;;;;;;22.97;75.83;96938.12;601763;235;64992;-65
2022/07/22 02:55:29;;;;;;;;;;;;;;;22.98;75.90;96949.63;601747;234;46121;-66
2022/07/22 02:57:57;;;;;;;;;;;;;;;22.98;76.03;96949.63;601704;235;67144;-71
2022/07/22 03:00:25;;;;;;;;;;;;;;;22.98;75.90;96949.63;601695;235;65085;-71
2022/07/22 03:02:52;;;;;;;;;;;;;;;22.98;75.81;96941.59;601732;235;68744;-71
2022/07/22 03:05:20;;;;;;;;;;;;;;;22.98;75.98;96945.06;601666;235;66869;-72
2022/07/22 03:07:49;;;;;;;;;;;;;;;22.97;75.72;96959.56;601793;234;42069;-71
2022/07/22 03:10:17;;;;;;;;;;;;;;;22.97;75.86;96943.48;601721;235;69281;-72
2022/07/22 03:12:44;;;;;;;;;;;;;;;22.98;75.88;96946.95;601658;235;66707;-71
2022/07/22 03:15:12;;;;;;;;;;;;;;;22.97;75.89;96940.80;601741;235;65212;-72
2022/07/22 03:17:40;;;;;;;;;;;;;;;22.97;75.92;96948.02;601723;235;68806;-71
2022/07/22 03:20:09;;;;;;;;;;;;;;;22.97;75.99;96948.84;601727;235;66517;-71
2022/07/22 03:22:36;;;;;;;;;;;;;;;22.97;75.79;96951.52;601743;235;65055;-71
2022/07/22 03:25:05;;;;;;;;;;;;;;;22.97;75.79;96958.73;601716;235;66462;-72
2022/07/22 03:27:33;;;;;;;;;;;;;;;22.97;75.67;96956.05;601684;235;66703;-72
2022/07/22 03:30:01;;;;;;;;;;;;;;;22.97;75.73;96948.02;601704;235;65776;-72
2022/07/22 03:32:30;;;;;;;;;;;;;;;22.96;75.71;96957.94;601802;234;47741;-72
2022/07/22 03:34:59;;;;;;;;;;;;;;;22.97;75.75;96958.73;601673;235;69260;-71
2022/07/22 03:37:26;;;;;;;;;;;;;;;22.96;75.87;96955.27;601717;235;65761;-72
2022/07/22 03:39:54;;;;;;;;;;;;;;;22.96;76.07;96957.94;601680;235;68721;-72
2022/07/22 03:42:22;;;;;;;;;;;;;;;22.97;76.01;96958.73;601724;235;68732;-72
2022/07/22 03:44:51;;;;;;;;;;;;;;;22.97;75.86;96959.56;601748;235;65399;-66
2022/07/22 03:47:19;;;;;;;;;;;;;;;22.97;75.91;96956.88;601736;235;68809;-66
2022/07/22 03:49:47;;;;;;;;;;;;;;;22.97;76.08;96964.09;601703;235;69258;-65
2022/07/22 03:52:15;;;;;;;;;;;;;;;22.97;75.93;96958.73;601648;235;63814;-66
2022/07/22 03:54:43;;;;;;;;;;;;;;;22.96;75.97;96962.52;601646;235;68810;-66
2022/07/22 03:57:11;;;;;;;;;;;;;;;22.97;76.09;96966.77;603280;235;68522;-66
2022/07/22 03:59:38;;;;;;;;;;;;;;;22.97;75.92;96969.45;603442;235;65854;-66
2022/07/22 04:02:06;;;;;;;;;;;;;;;22.96;76.19;96962.52;603439;235;69481;-66
2022/07/22 04:04:34;;;;;;;;;;;;;;;22.96;76.02;96965.98;603422;235;69563;-65
2022/07/22 04:07:01;;;;;;;;;;;;;;;22.96;76.07;96968.66;603424;235;62932;-65
2022/07/22 04:09:30;;;;;;;;;;;;;;;22.97;76.14;96972.13;603419;233;50338;-65
2022/07/22 04:11:58;;;;;;;;;;;;;;;22.96;76.14;96967.87;603452;235;69275;-65
2022/07/22 04:14:26;;;;;;;;;;;;;;;22.96;76.24;96967.87;603427;235;63386;-73
2022/07/22 04:16:55;;;;;;;;;;;;;;;22.96;76.06;96965.19;603475;234;47419;-73
2022/07/22 04:19:23;;;;;;;;;;;;;;;22.96;76.07;96967.87;603368;235;69117;-73
2022/07/22 04:21:53;;;;;;;;;;;;;;;22.96;76.30;96971.34;603325;235;44621;-73
2022/07/22 04:24:22;;;;;;;;;;;;;;;22.97;76.12;96966.77;603480;234;53018;-72
2022/07/22 04:26:52;;;;;;;;;;;;;;;22.96;76.28;96967.87;603325;235;50339;-73
2022/07/22 04:29:20;;;;;;;;;;;;;;;22.96;76.10;96967.87;603434;235;65029;-73
2022/07/22 04:31:47;;;;;;;;;;;;;;;22.96;75.99;96974.02;603412;235;66312;-73
2022/07/22 04:34:16;;;;;;;;;;;;;;;22.96;76.14;96976.70;603453;233;47333;-73
2022/07/22 04:36:44;;;;;;;;;;;;;;;22.96;76.27;96975.91;603457;235;65747;-73
2022/07/22 04:39:12;;;;;;;;;;;;;;;22.96;76.22;96984.74;603477;235;68311;-73
2022/07/22 04:41:41;;;;;;;;;;;;;;;22.97;76.25;96990.89;603395;233;45992;-73
2022/07/22 04:44:08;;;;;;;;;;;;;;;22.96;76.11;96989.31;603400;235;63782;-73
2022/07/22 04:46:36;;;;;;;;;;;;;;;22.97;76.16;96985.53;603417;235;69627;-73
2022/07/22 04:49:04;;;;;;;;;;;;;;;22.97;76.24;96980.17;603421;235;69176;-73
2022/07/22 04:51:32;;;;;;;;;;;;;;;22.96;76.26;96979.38;603466;235;64993;-73
2022/07/22 04:54:01;;;;;;;;;;;;;;;22.96;76.22;96984.74;603435;233;46097;-73
2022/07/22 04:56:29;;;;;;;;;;;;;;;22.96;76.11;96983.95;602541;234;67433;-73
2022/07/22 04:58:56;;;;;;;;;;;;;;;22.96;76.08;96995.46;602385;235;65020;-67
2022/07/22 05:01:26;;;;;;;;;;;;;;;22.96;76.23;96986.62;602273;234;46535;-66
2022/07/22 05:03:54;;;;;;;;;;;;;;;22.97;76.18;96996.25;602292;235;68748;-67
2022/07/22 05:06:24;;;;;;;;;;;;;;;22.96;76.06;97000.03;602173;234;43801;-66
2022/07/22 05:08:52;;;;;;;;;;;;;;;22.96;76.22;97006.18;602227;235;66598;-66
2022/07/22 05:11:20;;;;;;;;;;;;;;;22.97;76.10;97001.61;602201;235;69059;-66
2022/07/22 05:13:49;;;;;;;;;;;;;;;22.97;76.23;97004.30;602232;235;65609;-67
2022/07/22 05:16:17;;;;;;;;;;;;;;;22.96;76.20;97000.03;602257;235;66675;-66
2022/07/22 05:18:45;;;;;;;;;;;;;;;22.95;76.16;96996.52;602272;235;69388;-66
2022/07/22 05:21:14;;;;;;;;;;;;;;;22.96;76.16;97008.06;602242;235;65689;-67
2022/07/22 05:23:42;;;;;;;;;;;;;;;22.96;76.23;97002.71;602288;235;66579;-66
2022/07/22 05:26:10;;;;;;;;;;;;;;;22.96;76.51;97000.03;602241;235;67963;-67
2022/07/22 05:28:37;;;;;;;;;;;;;;;22.96;76.36;97005.39;602253;235;65051;-66
2022/07/22 05:31:05;;;;;;;;;;;;;;;22.96;76.37;97005.39;602291;235;68636;-67
2022/07/22 05:33:33;;;;;;;;;;;;;;;22.96;76.58;97010.75;602271;235;68697;-66
2022/07/22 05:36:06;;;;;;;;;;;;;;;22.96;76.64;97011.54;602336;234;43837;-66
2022/07/22 05:38:38;;;;;;;;;;;;;;;22.96;76.61;97016.11;602283;234;47141;-67
2022/07/22 05:41:06;;;;;;;;;;;;;;;22.95;76.78;97015.28;602278;235;66316;-67
2022/07/22 05:43:34;;;;;;;;;;;;;;;22.94;76.46;97013.67;602350;235;65635;-64
2022/07/22 05:46:02;;;;;;;;;;;;;;;22.95;76.72;97017.97;602283;235;68328;-71
2022/07/22 05:48:29;;;;;;;;;;;;;;;22.94;77.13;97013.67;602256;235;66773;-73
2022/07/22 05:50:57;;;;;;;;;;;;;;;22.96;77.24;97018.79;602208;235;65037;-73
2022/07/22 05:53:25;;;;;;;;;;;;;;;22.95;76.80;97020.64;602229;235;65843;-73
2022/07/22 05:55:53;;;;;;;;;;;;;;;22.96;74.97;97016.11;602027;234;69056;-70
2022/07/22 05:58:21;;;;;;;;;;;;;;;22.97;75.35;97015.84;601174;235;65080;-66
2022/07/22 06:00:49;;;;;;;;;;;;;;;22.96;75.67;97016.91;601587;235;69861;-67
2022/07/22 06:03:16;;;;;;;;;;;;;;;22.97;75.99;97023.05;602472;235;68714;-66
2022/07/22 06:05:44;;;;;;;;;;;;;;;22.96;75.94;97018.79;602683;235;62699;-66
2022/07/22 06:08:12;;;;;;;;;;;;;;;22.96;75.97;97021.47;602866;235;69226;-64
2022/07/22 06:10:42;;;;;;;;;;;;;;;22.96;76.05;97021.47;602606;235;50902;-64
2022/07/22 06:13:10;;;;;;;;;;;;;;;22.96;76.10;97022.27;602744;235;62919;-65
2022/07/22 06:15:39;;;;;;;;;;;;;;;22.94;76.16;97021.70;602857;235;69282;-64
2022/07/22 06:18:07;;;;;;;;;;;;;;;22.95;75.80;97023.33;602781;235;66474;-64
2022/07/22 06:20:34;;;;;;;;;;;;;;;22.97;75.81;97028.41;602769;235;65370;-64
2022/07/22 06:23:03;;;;;;;;;;;;;;;22.97;75.89;97028.41;602834;235;68778;-64
2022/07/22 06:25:32;;;;;;;;;;;;;;;22.97;75.93;97023.88;602692;235;69206;-67
2022/07/22 06:27:59;;;;;;;;;;;;;;;23.01;76.15;97024.89;602774;235;63057;-63
2022/07/22 06:30:27;;;;;;;;;;;;;;;23.03;75.31;97024.62;597838;235;69643;-63
2022/07/22 06:32:54;;;;;;;;;;;;;;;23.01;75.59;97034.82;602775;235;68647;-65
2022/07/22 06:35:24;;;;;;;;;;;;;;;23.00;76.13;97028.67;602810;235;65975;-63
2022/07/22 06:37:52;;;;;;;;;;;;;;;23.01;76.12;97034.82;602813;235;69457;-63
2022/07/22 06:40:19;;;;;;;;;;;;;;;23.01;75.96;97034.82;602819;235;66447;-63
2022/07/22 06:42:55;;;;;;;;;;;;;;;23.00;75.74;97028.67;602514;235;46333;-63
2022/07/22 06:45:27;;;;;;;;;;;;;;;23.00;75.60;97031.34;602763;235;45929;-64
2022/07/22 06:48:07;;;;;;;;;;;;;;;23.02;75.66;97036.41;602548;235;47770;-66
2022/07/22 06:50:35;;;;;;;;;;;;;;;23.01;76.02;97030.25;602851;235;62587;-63
2022/07/22 06:53:04;;;;;;;;;;;;;;;23.00;76.06;97033.23;602779;235;49523;-65
2022/07/22 06:55:32;;;;;;;;;;;;;;;23.01;76.18;97038.30;602387;235;69160;-60
2022/07/22 06:58:01;;;;;;;;;;;;;;;23.01;76.42;97035.62;601406;235;41565;-61
2022/07/22 07:00:29;;;;;;;;;;;;;;;23.02;76.84;97031.84;601539;236;68818;-65
2022/07/22 07:03:15;;;;;;;;;;;;;;;23.04;75.54;97037.72;601558;236;39372;-64
2022/07/22 07:05:45;;;;;;;;;;;;;;;23.03;75.72;97040.70;607910;233;65030;-64
2022/07/22 07:08:12;;;;;;;;;;;;;;;23.02;75.85;97042.56;608382;233;65914;-64
2022/07/22 07:10:40;;;;;;;;;;;;;;;23.02;76.18;97042.56;608376;233;66460;-64
2022/07/22 07:13:09;;;;;;;;;;;;;;;23.02;77.16;97047.12;608374;233;43804;-64
2022/07/22 07:15:42;;;;;;;;;;;;;;;23.02;78.02;97044.45;607792;233;51447;-64
2022/07/22 07:18:10;;;;;;;;;;;;;;;23.02;78.11;97049.81;608412;233;66346;-65
2022/07/22 07:20:38;;;;;;;;;;;;;;;23.01;78.17;97045.55;608376;233;65083;-64
2022/07/22 07:23:07;;;;;;;;;;;;;;;23.00;79.30;97050.11;608390;233;69506;-64
2022/07/22 07:25:36;;;;;;;;;;;;;;;23.01;79.40;97048.22;608361;233;45829;-68
2022/07/22 07:28:04;;;;;;;;;;;;;;;23.00;79.53;97049.31;608375;233;64813;-64
2022/07/22 07:30:50;;;;;;;;;;;;;;;23.00;79.18;97049.31;608508;233;39379;-67
2022/07/22 07:33:18;;;;;;;;;;;;;;;23.00;79.00;97049.31;608405;233;68736;-66
2022/07/22 07:35:46;;;;;;;;;;;;;;;23.00;79.34;97052.00;608427;233;64690;-66
2022/07/22 07:38:13;;;;;;;;;;;;;;;23.00;78.92;97060.83;608344;233;67286;-67
2022/07/22 07:40:42;;;;;;;;;;;;;;;22.99;78.97;97053.85;608383;233;68680;-65
2022/07/22 07:43:10;;;;;;;;;;;;;;;23.00;78.79;97066.19;608343;233;65167;-66
2022/07/22 07:45:38;;;;;;;;;;;;;;;22.99;78.50;97064.57;608403;233;68695;-66
2022/07/22 07:48:07;;;;;;;;;;;;;;;23.01;78.63;97072.34;608455;233;68655;-66
2022/07/22 07:50:34;;;;;;;;;;;;;;;23.02;79.41;97068.57;608431;233;64998;-63
2022/07/22 07:53:03;;;;;;;;;;;;;;;23.00;79.22;97074.23;608347;233;66174;-66
2022/07/22 07:55:31;;;;;;;;;;;;;;;23.01;79.47;97073.14;608240;233;68533;-69
2022/07/22 07:57:58;;;;;;;;;;;;;;;23.00;79.37;97076.91;607767;233;65201;-63
2022/07/22 08:00:28;;;;;;;;;;;;;;;23.01;78.95;97080.38;607795;233;69248;-65
2022/07/22 08:02:56;;;;;;;;;;;;;;;23.01;73.04;97083.86;607807;233;69148;-65
2022/07/22 08:05:25;;;;;;;;;;;;;;;23.05;76.31;97089.45;607782;233;65206;-65
2022/07/22 08:07:53;;;;;;;;;;;;;;;23.06;76.85;97084.91;607779;233;66199;-65
2022/07/22 08:10:21;;;;;;;;;;;;;;;23.04;77.10;97083.29;607800;233;68681;-65
2022/07/22 08:12:56;;;;;;;;;;;;;;;23.05;77.41;97089.45;600237;233;45319;-72
2022/07/22 08:15:29;;;;;;;;;;;;;;;23.04;77.70;97087.86;606885;233;48511;-65
2022/07/22 08:17:57;;;;;;;;;;;;;;;23.08;74.42;97080.04;607877;233;68768;-68
2022/07/22 08:20:25;;;;;;;;;;;;;;;23.08;76.63;97082.72;607768;233;65202;-68
2022/07/22 08:22:53;;;;;;;;;;;;;;;23.08;76.98;97088.08;607749;233;66261;-68
2022/07/22 08:25:22;;;;;;;;;;;;;;;23.07;77.00;97079.25;607774;233;69066;-67
2022/07/22 08:27:49;;;;;;;;;;;;;;;23.08;76.98;97085.41;607431;233;62857;-65
2022/07/22 08:30:17;;;;;;;;;;;;;;;23.08;77.24;97085.41;607837;233;69015;-66
2022/07/22 08:32:45;;;;;;;;;;;;;;;23.20;73.56;97094.67;607861;233;69041;-65
2022/07/22 08:35:13;;;;;;;;;;;;;;;23.20;73.09;97094.67;607793;233;62698;-62
2022/07/22 08:37:42;;;;;;;;;;;;;;;23.16;75.15;97096.34;607822;233;68854;-65
2022/07/22 08:40:12;;;;;;;;;;;;;;;23.16;73.69;97101.70;607918;233;68752;-69
2022/07/22 08:42:40;;;;;;;;;;;;;;;23.14;74.88;97106.53;607818;233;64979;-64
2022/07/22 08:45:09;;;;;;;;;;;;;;;23.13;75.37;97102.23;607828;233;68767;-65
2022/07/22 08:47:37;;;;;;;;;;;;;;;23.13;75.94;97098.77;607868;233;66666;-65
2022/07/22 08:50:16;;;;;;;;;;;;;;;23.12;76.29;97107.89;607697;233;43923;-65
2022/07/22 08:52:54;;;;;;;;;;;;;;;23.12;77.16;97103.33;607708;233;47454;-65
2022/07/22 08:55:21;;;;;;;;;;;;;;;23.10;77.86;97102.80;607829;233;68700;-71
2022/07/22 08:57:50;;;;;;;;;;;;;;;23.10;78.56;97107.38;607795;233;62870;-72
2022/07/22 09:00:19;;;;;;;;;;;;;;;23.09;78.37;97103.10;607827;233;68750;-71
2022/07/22 09:02:46;;;;;;;;;;;;;;;23.09;78.46;97111.94;607831;233;68673;-71
2022/07/22 09:05:16;;;;;;;;;;;;;;;23.10;79.18;97110.05;607782;233;65749;-72
2022/07/22 09:07:45;;;;;;;;;;;;;;;23.08;79.14;97113.03;607953;233;66705;-72
2022/07/22 09:10:16;;;;;;;;;;;;;;;23.08;78.76;97107.67;604110;233;48171;-72
2022/07/22 09:13:03;;;;;;;;;;;;;;;23.08;78.46;97107.67;607961;233;39311;-72
2022/07/22 09:15:41;;;;;;;;;;;;;;;23.09;78.29;97111.14;606896;233;48454;-72
2022/07/22 09:18:16;;;;;;;;;;;;;;;23.09;77.80;97111.14;596442;233;48788;-72
2022/07/22 09:21:00;;;;;;;;;;;;;;;23.08;77.99;97109.53;587766;233;47383;-71
2022/07/22 09:23:38;;;;;;;;;;;;;;;23.08;77.61;97110.35;607365;233;46846;-72
2022/07/22 09:26:06;;;;;;;;;;;;;;;23.09;77.66;97109.26;607596;233;66677;-72
2022/07/22 09:28:38;;;;;;;;;;;;;;;23.08;77.45;97102.31;604119;233;46430;-72
2022/07/22 09:31:26;;;;;;;;;;;;;;;23.08;77.45;97104.98;607928;233;51588;-72
2022/07/22 09:33:57;;;;;;;;;;;;;;;23.09;77.16;97103.89;607779;233;47927;-74
2022/07/22 09:36:26;;;;;;;;;;;;;;;23.10;77.26;97091.29;607904;233;42454;-73
2022/07/22 09:38:55;;;;;;;;;;;;;;;23.09;77.07;97106.58;607817;233;68186;-73
2022/07/22 09:41:23;;;;;;;;;;;;;;;23.10;77.02;97104.69;607816;233;69068;-74
2022/07/22 09:43:51;;;;;;;;;;;;;;;23.10;77.00;97100.13;603534;233;65168;-73
2022/07/22 09:46:22;;;;;;;;;;;;;;;23.10;76.81;97097.44;601618;235;65869;-73
2022/07/22 09:48:57;;;;;;;;;;;;;;;23.11;77.27;97108.96;593868;234;48215;-73
2022/07/22 09:51:34;;;;;;;;;;;;;;;23.11;77.44;97099.06;597716;235;46464;-73
2022/07/22 09:54:12;;;;;;;;;;;;;;;23.12;77.34;97100.65;601514;234;49743;-73
2022/07/22 09:56:40;;;;;;;;;;;;;;;23.10;77.72;97100.13;602035;235;66315;-73
2022/07/22 09:59:08;;;;;;;;;;;;;;;23.12;77.78;97099.86;602152;235;65157;-69
2022/07/22 10:01:40;;;;;;;;;;;;;;;23.16;73.67;97098.19;602180;234;45947;-72
2022/07/22 10:04:08;;;;;;;;;;;;;;;23.16;74.56;97101.70;602229;235;68747;-71
2022/07/22 10:06:37;;;;;;;;;;;;;;;23.15;74.96;97102.76;602246;235;64944;-73
2022/07/22 10:09:08;;;;;;;;;;;;;;;23.15;75.11;97101.97;602023;235;67512;-72
2022/07/22 10:11:37;;;;;;;;;;;;;;;23.15;75.69;97097.40;602214;235;69228;-73
2022/07/22 10:14:05;;;;;;;;;;;;;;;23.15;76.06;97097.40;602157;235;65214;-71
2022/07/22 10:16:33;;;;;;;;;;;;;;;23.16;76.14;97098.19;602140;235;66692;-71
2022/07/22 10:19:01;;;;;;;;;;;;;;;23.15;76.43;97110.80;602194;235;67560;-71
2022/07/22 10:21:33;;;;;;;;;;;;;;;23.15;76.59;97110.80;602186;235;65726;-71
2022/07/22 10:24:08;;;;;;;;;;;;;;;23.15;76.63;97110.80;602170;235;68728;-72
2022/07/22 10:26:55;;;;;;;;;;;;;;;23.15;76.60;97108.12;602348;234;49548;-70
2022/07/22 10:29:33;;;;;;;;;;;;;;;23.15;76.66;97102.76;602181;235;65254;-69
2022/07/22 10:32:24;;;;;;;;;;;;;;;23.15;76.80;97110.01;602203;235;66468;-71
2022/07/22 10:34:56;;;;;;;;;;;;;;;23.17;76.32;97092.56;602188;235;69208;-71
2022/07/22 10:37:40;;;;;;;;;;;;;;;23.18;76.56;97104.08;599649;235;65203;-70
2022/07/22 10:40:15;;;;;;;;;;;;;;;23.17;75.99;97107.86;601874;235;67229;-72
2022/07/22 10:42:59;;;;;;;;;;;;;;;23.17;75.46;97108.64;602130;233;66563;-71
2022/07/22 10:45:31;;;;;;;;;;;;;;;23.17;75.56;97100.61;602013;235;65894;-70
2022/07/22 10:48:00;;;;;;;;;;;;;;;23.17;75.86;97099.81;602201;234;68689;-71
2022/07/22 10:50:35;;;;;;;;;;;;;;;23.17;75.89;97097.92;602145;235;68886;-71
2022/07/22 10:53:05;;;;;;;;;;;;;;;23.19;73.09;97100.30;602189;235;65103;-72
2022/07/22 10:55:33;;;;;;;;;;;;;;;23.23;66.28;97096.78;601894;234;66125;-72
2022/07/22 10:58:00;;;;;;;;;;;;;;;23.28;65.48;97095.95;601610;235;68544;-71
2022/07/22 11:00:28;;;;;;;;;;;;;;;23.31;64.90;97086.53;601547;235;64862;-70
2022/07/22 11:02:55;;;;;;;;;;;;;;;23.32;66.68;97088.13;601692;235;68859;-69
2022/07/22 11:05:26;;;;;;;;;;;;;;;23.32;72.20;97090.80;601496;235;66355;-72
2022/07/22 11:07:54;;;;;;;;;;;;;;;23.31;63.19;97089.22;601681;235;62832;-72
2022/07/22 11:10:22;;;;;;;;;;;;;;;23.32;61.55;97094.28;601673;235;66430;-72
2022/07/22 11:12:50;;;;;;;;;;;;;;;23.34;65.49;97091.33;601600;235;66525;-72
2022/07/22 11:15:17;;;;;;;;;;;;;;;23.34;64.38;97088.64;601704;235;62786;-72
2022/07/22 11:17:45;;;;;;;;;;;;;;;23.34;68.26;97086.76;601647;235;69019;-72
2022/07/22 11:20:16;;;;;;;;;;;;;;;23.32;67.35;97093.48;601551;235;68521;-70
2022/07/22 11:22:45;;;;;;;;;;;;;;;23.33;66.49;97087.05;601647;235;65101;-70
2022/07/22 11:25:13;;;;;;;;;;;;;;;23.31;63.74;97097.26;601594;234;68856;-69
2022/07/22 11:27:42;;;;;;;;;;;;;;;23.32;64.81;97088.13;601505;235;68613;-69
2022/07/22 11:30:10;;;;;;;;;;;;;;;23.32;70.53;97083.55;601444;234;62693;-72
2022/07/22 11:32:38;;;;;;;;;;;;;;;23.30;71.51;97095.64;601493;235;68661;-73
2022/07/22 11:35:08;;;;;;;;;;;;;;;23.26;72.21;97101.58;601464;234;68573;-74
2022/07/22 11:37:35;;;;;;;;;;;;;;;23.25;72.08;97102.67;601652;235;62845;-73
2022/07/22 11:40:04;;;;;;;;;;;;;;;23.25;72.03;97093.83;601578;235;66426;-71
2022/07/22 11:42:33;;;;;;;;;;;;;;;23.25;72.35;97099.20;601461;234;68314;-71
2022/07/22 11:45:01;;;;;;;;;;;;;;;23.25;72.00;97093.83;601619;235;65032;-71
2022/07/22 11:47:29;;;;;;;;;;;;;;;23.25;72.35;97091.16;601464;235;66639;-73
2022/07/22 11:49:57;;;;;;;;;;;;;;;23.24;72.63;97103.77;601473;235;69130;-75
2022/07/22 11:52:24;;;;;;;;;;;;;;;23.27;71.89;97088.96;601687;235;65070;-69
2022/07/22 11:54:52;;;;;;;;;;;;;;;23.31;67.58;97089.22;601564;235;68612;-69
2022/07/22 11:57:19;;;;;;;;;;;;;;;23.37;70.80;97090.75;602102;235;66365;-71
2022/07/22 11:59:47;;;;;;;;;;;;;;;23.36;72.40;97083.80;602116;235;62773;-74
2022/07/22 12:02:15;;;;;;;;;;;;;;;23.35;72.73;97092.91;602116;235;68952;-73
2022/07/22 12:04:44;;;;;;;;;;;;;;;23.34;73.10;97086.76;602168;235;68539;-70
2022/07/22 12:07:12;;;;;;;;;;;;;;;23.35;73.42;97090.23;602174;235;62990;-71
2022/07/22 12:09:42;;;;;;;;;;;;;;;23.35;73.39;97087.55;602161;235;68497;-72
2022/07/22 12:12:10;;;;;;;;;;;;;;;23.35;73.63;97082.98;602132;235;68741;-70
2022/07/22 12:14:39;;;;;;;;;;;;;;;23.36;73.65;97075.76;601742;235;66457;-73
2022/07/22 12:17:13;;;;;;;;;;;;;;;23.36;73.79;97071.19;602040;234;68775;-71
2022/07/22 12:19:38;;;;;;;;;;;;;;;23.37;73.75;97074.66;602052;235;68709;-71
2022/07/22 12:22:07;;;;;;;;;;;;;;;23.37;73.75;97078.14;602175;235;62826;-69
2022/07/22 12:24:38;;;;;;;;;;;;;;;23.38;73.90;97076.25;602103;235;66546;-72
2022/07/22 12:27:10;;;;;;;;;;;;;;;23.37;73.90;97075.45;602224;235;68540;-71
2022/07/22 12:29:40;;;;;;;;;;;;;;;23.37;74.10;97064.73;602188;235;63053;-72
2022/07/22 12:32:09;;;;;;;;;;;;;;;23.38;74.33;97062.84;602213;235;68832;-70
2022/07/22 12:34:41;;;;;;;;;;;;;;;23.38;74.31;97070.89;602098;235;66437;-72
2022/07/22 12:37:10;;;;;;;;;;;;;;;23.38;74.49;97066.34;602119;235;65110;-74
2022/07/22 12:39:38;;;;;;;;;;;;;;;23.38;74.51;97063.66;600877;235;66525;-72
2022/07/22 12:42:08;;;;;;;;;;;;;;;23.38;74.62;97060.98;602109;234;68761;-71
2022/07/22 12:44:36;;;;;;;;;;;;;;;23.39;74.62;97062.57;602017;234;65191;-73
2022/07/22 12:47:04;;;;;;;;;;;;;;;23.41;74.17;97059.62;602248;235;68793;-72
2022/07/22 12:49:31;;;;;;;;;;;;;;;23.41;74.42;97057.73;602207;235;69455;-71
2022/07/22 12:52:06;;;;;;;;;;;;;;;23.41;74.45;97064.98;602140;235;62674;-66
2022/07/22 12:54:34;;;;;;;;;;;;;;;23.41;74.74;97064.98;602211;235;68834;-64
2022/07/22 12:57:02;;;;;;;;;;;;;;;23.41;74.82;97059.62;601752;235;68515;-65